Belleville, Mississippi
Current Conditions -  °F | °C
As of 4:53 AM on Thursday 27 Nov 2014 (Local Time) from KHBG Reporting Station
Clear Clear  
Wind Chill: 40°   Ceiling: Unl
Heat Index: 40°   Visibility: 10mi
Dew Point: 35°   Wind: 0mph
Humidity: 83%   Direction: NA
Pressure: 30.33"   Gusts: NA
Location:  31.0667°N, 89.05°W
Report Text: KHBG 271053Z AUTO 00000KT 10SM CLR 04/02 A3033 RMK AO2 SLP270 T00440017
Loading
Personal Weather Stations






























Interactive Weather Map New forecast layout! Learn more

10-Day Weather Forecast

Advertisements
Track Severe Weather on mobile